Time;durP1;ratioP1;P1;durP2;ratioP2;P2;SDS_P1;SDS_P2;PMS_P1;PMS_P2;Temp;Humidity;BMP_temperature;BMP_pressure;BME280_temperature;BME280_humidity;BME280_pressure;Samples;Min_cycle;Max_cycle;Signal;HPM_P1;HPM_P2
2022/07/21 00:01:31;;;;;;;;;;;19.70;99.90;;;;;;5077027;28;19908;-66
2022/07/21 00:03:56;;;;;;;;;;;19.50;99.90;;;;;;5076700;28;19931;-66
2022/07/21 00:06:22;;;;;;;;;;;19.20;99.90;;;;;;5076659;28;19909;-67
2022/07/21 00:08:47;;;;;;;;;;;19.20;99.90;;;;;;5076828;28;20003;-67
2022/07/21 00:11:13;;;;;;;;;;;19.00;99.90;;;;;;5076587;28;19977;-67
2022/07/21 00:13:38;;;;;;;;;;;18.90;99.90;;;;;;5076819;28;19909;-67
2022/07/21 00:16:04;;;;;;;;;;;19.00;99.90;;;;;;5076796;28;20295;-67
2022/07/21 00:18:30;;;;;;;;;;;18.90;99.90;;;;;;5076731;28;20366;-66
2022/07/21 00:20:56;;;;;;;;;;;18.80;99.90;;;;;;5076690;28;19979;-66
2022/07/21 00:23:22;;;;;;;;;;;18.80;99.90;;;;;;5076399;28;20383;-66
2022/07/21 00:25:48;;;;;;;;;;;18.80;99.90;;;;;;5076604;28;20283;-66
2022/07/21 00:28:13;;;;;;;;;;;18.80;99.90;;;;;;5076479;28;19917;-66
2022/07/21 00:30:39;;;;;;;;;;;18.80;99.90;;;;;;5076497;28;20351;-66
2022/07/21 00:33:05;;;;;;;;;;;18.80;99.90;;;;;;5076465;28;19909;-66
2022/07/21 00:35:30;;;;;;;;;;;18.90;99.90;;;;;;5076148;28;19962;-67
2022/07/21 00:37:56;;;;;;;;;;;18.90;99.90;;;;;;5076352;28;19952;-66
2022/07/21 00:40:21;;;;;;;;;;;18.90;99.90;;;;;;5076100;28;19913;-66
2022/07/21 00:42:47;;;;;;;;;;;18.90;99.90;;;;;;5076072;28;19908;-66
2022/07/21 00:45:12;;;;;;;;;;;18.90;99.90;;;;;;5076258;28;19909;-67
2022/07/21 00:47:38;;;;;;;;;;;18.90;99.90;;;;;;5076120;28;20359;-66
2022/07/21 00:50:06;;;;;;;;;;;18.90;99.90;;;;;;5076174;28;20451;-66
2022/07/21 00:52:32;;;;;;;;;;;18.90;99.90;;;;;;5076115;28;19987;-66
2022/07/21 00:54:57;;;;;;;;;;;19.00;99.90;;;;;;5076043;28;20386;-66
2022/07/21 00:57:23;;;;;;;;;;;19.00;99.90;;;;;;5075584;28;19923;-66
2022/07/21 00:59:48;;;;;;;;;;;19.00;99.90;;;;;;5075692;28;19909;-67
2022/07/21 01:02:14;;;;;;;;;;;19.00;99.90;;;;;;5075925;28;19999;-66
2022/07/21 01:04:40;;;;;;;;;;;19.00;99.90;;;;;;5075661;28;19909;-66
2022/07/21 01:07:05;;;;;;;;;;;19.10;99.90;;;;;;5075354;28;19924;-66
2022/07/21 01:09:32;;;;;;;;;;;19.10;99.90;;;;;;5075827;28;20270;-66
2022/07/21 01:11:58;;;;;;;;;;;19.10;99.90;;;;;;5075713;28;19909;-67
2022/07/21 01:14:23;;;;;;;;;;;19.10;99.90;;;;;;5075736;28;19909;-66
2022/07/21 01:16:49;;;;;;;;;;;19.20;99.90;;;;;;5075664;28;19958;-66
2022/07/21 01:19:15;;;;;;;;;;;19.20;99.90;;;;;;5075635;28;20362;-66
2022/07/21 01:21:41;;;;;;;;;;;;;;;;;;5075250;28;19908;-66
2022/07/21 01:24:07;;;;;;;;;;;19.10;99.90;;;;;;5075497;28;19998;-66
2022/07/21 01:26:49;;;;;;;;;;;19.10;99.90;;;;;;5075515;28;19979;-66
2022/07/21 01:29:15;;;;;;;;;;;19.10;99.90;;;;;;5057254;28;19923;-66
2022/07/21 01:31:42;;;;;;;;;;;19.10;99.90;;;;;;5075406;28;19997;-66
2022/07/21 01:34:08;;;;;;;;;;;19.10;99.90;;;;;;5075074;28;19916;-66
2022/07/21 01:36:33;;;;;;;;;;;19.10;99.90;;;;;;5075285;28;19908;-66
2022/07/21 01:41:45;;;;;;;;;;;19.00;99.90;;;;;;5074695;28;19909;-67
2022/07/21 01:44:11;;;;;;;;;;;19.00;99.90;;;;;;5075091;28;19909;-66
2022/07/21 01:46:38;;;;;;;;;;;18.90;99.90;;;;;;5075073;28;19909;-67
2022/07/21 01:49:04;;;;;;;;;;;18.90;99.90;;;;;;5074970;28;20387;-67
2022/07/21 01:51:30;;;;;;;;;;;19.00;99.90;;;;;;5057160;28;19909;-67
2022/07/21 01:53:55;;;;;;;;;;;18.90;99.90;;;;;;5074552;28;20360;-66
2022/07/21 01:56:22;;;;;;;;;;;18.90;99.90;;;;;;5074421;28;19916;-66
2022/07/21 01:58:48;;;;;;;;;;;18.90;99.90;;;;;;5074588;28;20381;-67
2022/07/21 02:01:15;;;;;;;;;;;18.90;99.90;;;;;;5074827;28;19919;-67
2022/07/21 02:03:40;;;;;;;;;;;19.00;99.90;;;;;;5074475;28;19909;-66
2022/07/21 02:06:07;;;;;;;;;;;18.90;99.90;;;;;;5074410;28;20382;-67
2022/07/21 02:08:32;;;;;;;;;;;18.90;99.90;;;;;;5074534;28;19927;-67
2022/07/21 02:10:58;;;;;;;;;;;18.90;99.90;;;;;;5074553;28;20275;-67
2022/07/21 02:13:24;;;;;;;;;;;18.80;99.90;;;;;;5074310;28;19919;-66
2022/07/21 02:15:49;;;;;;;;;;;18.70;99.90;;;;;;5074201;28;19908;-66
2022/07/21 02:18:15;;;;;;;;;;;18.80;99.90;;;;;;5073784;28;19909;-67
2022/07/21 02:20:41;;;;;;;;;;;18.70;99.90;;;;;;5074283;28;19908;-67
2022/07/21 02:23:07;;;;;;;;;;;18.60;99.90;;;;;;5074069;28;20382;-67
2022/07/21 02:25:32;;;;;;;;;;;18.70;99.90;;;;;;5074333;28;19958;-66
2022/07/21 02:27:58;;;;;;;;;;;18.70;99.90;;;;;;5056375;28;19981;-66
2022/07/21 02:30:36;;;;;;;;;;;18.60;99.90;;;;;;5074253;28;20140;-66
2022/07/21 02:33:02;;;;;;;;;;;18.70;99.90;;;;;;5074237;28;19916;-66
2022/07/21 02:35:28;;;;;;;;;;;18.60;99.90;;;;;;5074199;28;20309;-66
2022/07/21 02:37:53;;;;;;;;;;;18.60;99.90;;;;;;5074152;28;19916;-67
2022/07/21 02:40:19;;;;;;;;;;;18.60;99.90;;;;;;5073860;28;19991;-67
2022/07/21 02:42:44;;;;;;;;;;;18.50;99.90;;;;;;5073825;28;20010;-67
2022/07/21 02:45:10;;;;;;;;;;;18.50;99.90;;;;;;5074077;28;19909;-67
2022/07/21 02:47:56;;;;;;;;;;;18.50;99.90;;;;;;5073945;28;19912;-67
2022/07/21 02:50:22;;;;;;;;;;;18.50;99.90;;;;;;5073543;28;19972;-67
2022/07/21 02:52:48;;;;;;;;;;;18.50;99.90;;;;;;5073743;28;19908;-67
2022/07/21 02:55:15;;;;;;;;;;;18.40;99.90;;;;;;5073637;28;20075;-67
2022/07/21 02:57:40;;;;;;;;;;;18.50;99.90;;;;;;5073536;28;19916;-67
2022/07/21 03:00:07;;;;;;;;;;;18.50;99.90;;;;;;5073935;28;19908;-67
2022/07/21 03:02:32;;;;;;;;;;;18.40;99.90;;;;;;5073654;28;19916;-67
2022/07/21 03:04:58;;;;;;;;;;;18.40;99.90;;;;;;5073652;28;19934;-67
2022/07/21 03:07:23;;;;;;;;;;;18.40;99.90;;;;;;5073468;28;19912;-67
2022/07/21 03:09:49;;;;;;;;;;;18.30;99.90;;;;;;5073772;28;19915;-67
2022/07/21 03:12:14;;;;;;;;;;;18.40;99.90;;;;;;5073736;28;19912;-67
2022/07/21 03:14:40;;;;;;;;;;;18.30;99.90;;;;;;5055555;28;20418;-67
2022/07/21 03:17:05;;;;;;;;;;;18.30;99.90;;;;;;5073707;28;19915;-67
2022/07/21 03:19:31;;;;;;;;;;;18.30;99.90;;;;;;5073366;28;19995;-67
2022/07/21 03:21:56;;;;;;;;;;;18.30;99.90;;;;;;5073670;28;19999;-67
2022/07/21 03:24:22;;;;;;;;;;;18.30;99.90;;;;;;5073647;28;19909;-67
2022/07/21 03:26:47;;;;;;;;;;;18.30;99.90;;;;;;5073619;28;19962;-67
2022/07/21 03:29:12;;;;;;;;;;;18.40;99.90;;;;;;5073265;28;19913;-67
2022/07/21 03:31:38;;;;;;;;;;;18.30;99.90;;;;;;5077104;28;20359;-67
2022/07/21 03:34:03;;;;;;;;;;;18.30;99.90;;;;;;5059482;28;19912;-67
2022/07/21 03:36:29;;;;;;;;;;;18.20;99.90;;;;;;5077557;28;19912;-67
2022/07/21 03:38:55;;;;;;;;;;;18.20;99.90;;;;;;5077255;28;19918;-66
2022/07/21 03:41:20;;;;;;;;;;;18.10;99.90;;;;;;5077484;28;19913;-67
2022/07/21 03:43:45;;;;;;;;;;;18.10;99.90;;;;;;5077140;28;19909;-67
2022/07/21 03:46:11;;;;;;;;;;;18.10;99.90;;;;;;5077408;28;19912;-67
2022/07/21 03:48:36;;;;;;;;;;;18.10;99.90;;;;;;5077246;28;19956;-67
2022/07/21 03:51:02;;;;;;;;;;;18.10;99.90;;;;;;5077289;28;19912;-67
2022/07/21 03:53:27;;;;;;;;;;;18.10;99.90;;;;;;5077255;28;19939;-67
2022/07/21 03:55:53;;;;;;;;;;;18.10;99.90;;;;;;5076742;28;19909;-67
2022/07/21 03:58:18;;;;;;;;;;;18.10;99.90;;;;;;5076843;28;19985;-67
2022/07/21 04:00:44;;;;;;;;;;;18.00;99.90;;;;;;5076809;28;19913;-67
2022/07/21 04:03:10;;;;;;;;;;;18.00;99.90;;;;;;5077077;28;19963;-67
2022/07/21 04:05:36;;;;;;;;;;;18.00;99.90;;;;;;5076737;28;19936;-67
2022/07/21 04:08:02;;;;;;;;;;;18.00;99.90;;;;;;5076633;28;20029;-66
2022/07/21 04:10:29;;;;;;;;;;;18.00;99.90;;;;;;5076630;28;19908;-67
2022/07/21 04:12:56;;;;;;;;;;;17.90;99.90;;;;;;5076589;28;19916;-67
2022/07/21 04:15:21;;;;;;;;;;;18.00;99.90;;;;;;5076564;28;19915;-67
2022/07/21 04:17:48;;;;;;;;;;;18.00;99.90;;;;;;5076812;28;20339;-67
2022/07/21 04:20:14;;;;;;;;;;;18.00;99.90;;;;;;5076740;28;19940;-67
2022/07/21 04:22:40;;;;;;;;;;;18.10;99.90;;;;;;5076440;28;20417;-67
2022/07/21 04:25:06;;;;;;;;;;;18.10;99.90;;;;;;5058472;28;20003;-67
2022/07/21 04:27:32;;;;;;;;;;;18.00;99.90;;;;;;5076234;28;19912;-67
2022/07/21 04:29:57;;;;;;;;;;;18.00;99.90;;;;;;5076308;28;19909;-67
2022/07/21 04:32:23;;;;;;;;;;;18.00;99.90;;;;;;5076227;28;19908;-67
2022/07/21 04:34:48;;;;;;;;;;;18.00;99.90;;;;;;5076489;28;19916;-67
2022/07/21 04:37:14;;;;;;;;;;;18.10;99.90;;;;;;5076428;28;19912;-67
2022/07/21 04:39:39;;;;;;;;;;;18.10;99.90;;;;;;5076197;28;19955;-67
2022/07/21 04:42:05;;;;;;;;;;;18.10;99.90;;;;;;5057329;28;19908;-67
2022/07/21 04:44:31;;;;;;;;;;;18.20;99.90;;;;;;5076052;28;19915;-67
2022/07/21 04:46:56;;;;;;;;;;;18.30;99.90;;;;;;5076212;28;20381;-67
2022/07/21 04:49:22;;;;;;;;;;;18.30;99.90;;;;;;5075873;28;19920;-67
2022/07/21 04:51:47;;;;;;;;;;;18.40;99.90;;;;;;5075906;28;19915;-67
2022/07/21 04:54:13;;;;;;;;;;;18.50;99.90;;;;;;5076136;28;19916;-67
2022/07/21 04:56:40;;;;;;;;;;;18.50;99.90;;;;;;5075765;28;20297;-67
2022/07/21 04:59:05;;;;;;;;;;;18.40;99.90;;;;;;5075778;28;19948;-67
2022/07/21 05:01:31;;;;;;;;;;;18.40;99.90;;;;;;5075693;28;19915;-67
2022/07/21 05:03:56;;;;;;;;;;;18.40;99.90;;;;;;5058115;28;19962;-67
2022/07/21 05:06:22;;;;;;;;;;;18.40;99.90;;;;;;5075899;28;19983;-67
2022/07/21 05:08:47;;;;;;;;;;;18.40;99.90;;;;;;5057739;28;19917;-67
2022/07/21 05:11:13;;;;;;;;;;;18.40;99.90;;;;;;5075528;28;19908;-67
2022/07/21 05:13:38;;;;;;;;;;;18.40;99.90;;;;;;5075730;28;19909;-67
2022/07/21 05:16:04;;;;;;;;;;;18.30;99.90;;;;;;5075431;28;19912;-67
2022/07/21 05:18:31;;;;;;;;;;;18.30;99.90;;;;;;5075387;28;19908;-67
2022/07/21 05:20:56;;;;;;;;;;;18.40;99.90;;;;;;5075315;28;20038;-67
2022/07/21 05:23:22;;;;;;;;;;;18.40;99.90;;;;;;5075238;28;20396;-67
2022/07/21 05:25:47;;;;;;;;;;;18.40;99.90;;;;;;5057330;28;19909;-67
2022/07/21 05:28:12;;;;;;;;;;;18.40;99.90;;;;;;5057285;28;19999;-67
2022/07/21 05:30:38;;;;;;;;;;;18.50;99.90;;;;;;5057295;28;20374;-67
2022/07/21 05:33:03;;;;;;;;;;;18.40;99.90;;;;;;5075135;28;19958;-67
2022/07/21 05:35:30;;;;;;;;;;;18.40;99.90;;;;;;5075069;28;19909;-67
2022/07/21 05:37:56;;;;;;;;;;;18.40;99.90;;;;;;5075218;28;20424;-67
2022/07/21 05:40:21;;;;;;;;;;;18.40;99.90;;;;;;5075001;28;19909;-67
2022/07/21 05:42:47;;;;;;;;;;;18.40;99.90;;;;;;5074874;28;19936;-67
2022/07/21 05:45:12;;;;;;;;;;;18.50;99.90;;;;;;5075128;28;19912;-67
2022/07/21 05:47:38;;;;;;;;;;;18.70;99.90;;;;;;5074716;28;19955;-67
2022/07/21 05:50:04;;;;;;;;;;;19.10;99.90;;;;;;5074740;28;19995;-67
2022/07/21 05:52:29;;;;;;;;;;;19.30;99.90;;;;;;5074966;28;19957;-67
2022/07/21 05:54:55;;;;;;;;;;;19.20;99.90;;;;;;5074655;28;20309;-67
2022/07/21 05:57:20;;;;;;;;;;;19.20;99.90;;;;;;5074434;28;19916;-67
2022/07/21 05:59:46;;;;;;;;;;;19.10;99.90;;;;;;5074728;28;19916;-67
2022/07/21 06:02:11;;;;;;;;;;;19.00;99.90;;;;;;5074484;28;19908;-67
2022/07/21 06:04:37;;;;;;;;;;;19.10;99.90;;;;;;5074375;28;19916;-67
2022/07/21 06:07:02;;;;;;;;;;;19.20;99.90;;;;;;5076559;28;19913;-67
2022/07/21 06:09:28;;;;;;;;;;;19.20;99.90;;;;;;5078396;28;19968;-67
2022/07/21 06:11:53;;;;;;;;;;;19.30;99.90;;;;;;5072498;28;19912;-67
2022/07/21 06:14:19;;;;;;;;;;;19.10;99.90;;;;;;5076375;28;19908;-67
2022/07/21 06:16:44;;;;;;;;;;;19.00;99.90;;;;;;5074204;28;20010;-67
2022/07/21 06:19:10;;;;;;;;;;;19.20;99.90;;;;;;5073652;28;20349;-67
2022/07/21 06:21:36;;;;;;;;;;;19.40;99.90;;;;;;5073772;28;19916;-67
2022/07/21 06:24:01;;;;;;;;;;;19.40;99.90;;;;;;5055878;28;20374;-68
2022/07/21 06:26:27;;;;;;;;;;;19.40;99.90;;;;;;5073758;28;19915;-64
2022/07/21 06:28:52;;;;;;;;;;;19.40;99.90;;;;;;5071514;28;19917;-66
2022/07/21 06:31:18;;;;;;;;;;;19.40;99.90;;;;;;5055492;28;19909;-66
2022/07/21 06:33:43;;;;;;;;;;;19.70;99.90;;;;;;5066712;28;19916;-66
2022/07/21 06:36:09;;;;;;;;;;;20.00;99.90;;;;;;5056009;28;19991;-65
2022/07/21 06:38:34;;;;;;;;;;;20.20;99.90;;;;;;5074023;28;19912;-65
2022/07/21 06:41:00;;;;;;;;;;;20.40;99.90;;;;;;5073754;28;20409;-65
2022/07/21 06:43:25;;;;;;;;;;;20.30;99.90;;;;;;5045542;28;19939;-65
2022/07/21 06:45:51;;;;;;;;;;;20.10;99.90;;;;;;5053956;28;19915;-66
2022/07/21 06:48:16;;;;;;;;;;;20.00;99.90;;;;;;5065179;28;19963;-66
2022/07/21 06:50:42;;;;;;;;;;;20.00;99.90;;;;;;5073710;28;19915;-66
2022/07/21 06:53:08;;;;;;;;;;;20.10;99.90;;;;;;5073579;28;20259;-65
2022/07/21 06:55:34;;;;;;;;;;;20.10;99.90;;;;;;5073702;28;19908;-66
2022/07/21 06:58:16;;;;;;;;;;;20.10;99.90;;;;;;5073420;28;20282;-66
2022/07/21 07:00:42;;;;;;;;;;;20.00;99.90;;;;;;5073573;28;20298;-66
2022/07/21 07:03:08;;;;;;;;;;;20.10;99.90;;;;;;5073539;28;19909;-66
2022/07/21 07:05:34;;;;;;;;;;;20.70;99.90;;;;;;5072307;28;19919;-67
2022/07/21 07:08:00;;;;;;;;;;;20.70;99.90;;;;;;5072357;28;19917;-66
2022/07/21 07:10:25;;;;;;;;;;;20.50;99.90;;;;;;5068420;28;20350;-67
2022/07/21 07:12:50;;;;;;;;;;;20.70;99.90;;;;;;5073691;28;19939;-66
2022/07/21 07:15:16;;;;;;;;;;;20.80;99.90;;;;;;5071162;28;19919;-67
2022/07/21 07:17:41;;;;;;;;;;;20.90;99.90;;;;;;5055185;28;20007;-67
2022/07/21 07:20:07;;;;;;;;;;;21.30;99.90;;;;;;5073305;28;19916;-67
2022/07/21 07:22:33;;;;;;;;;;;22.20;99.90;;;;;;5073303;28;19909;-67
2022/07/21 07:24:59;;;;;;;;;;;22.20;99.90;;;;;;5073556;28;19908;-66
2022/07/21 07:27:25;;;;;;;;;;;21.50;99.90;;;;;;5073406;28;19919;-66
2022/07/21 07:29:50;;;;;;;;;;;21.10;99.90;;;;;;5073239;28;20003;-66
2022/07/21 07:32:15;;;;;;;;;;;21.00;99.90;;;;;;5073494;28;19958;-66
2022/07/21 07:34:41;;;;;;;;;;;21.20;99.90;;;;;;5073164;28;20378;-66
2022/07/21 07:37:07;;;;;;;;;;;21.10;99.90;;;;;;5072275;28;20003;-68
2022/07/21 07:39:32;;;;;;;;;;;20.90;99.90;;;;;;5064048;28;19915;-67
2022/07/21 07:41:58;;;;;;;;;;;21.00;99.90;;;;;;5068001;28;19909;-66
2022/07/21 07:44:23;;;;;;;;;;;20.80;99.90;;;;;;5071915;28;19912;-67
2022/07/21 07:46:49;;;;;;;;;;;20.80;99.90;;;;;;5073121;28;20358;-66
2022/07/21 07:49:14;;;;;;;;;;;20.70;99.90;;;;;;5073100;28;19923;-66
2022/07/21 07:51:40;;;;;;;;;;;20.90;99.90;;;;;;5065185;28;19993;-66
2022/07/21 07:54:05;;;;;;;;;;;20.90;99.90;;;;;;5062434;28;19924;-66
2022/07/21 07:56:31;;;;;;;;;;;21.10;99.90;;;;;;5053953;28;19921;-67
2022/07/21 07:58:56;;;;;;;;;;;21.10;99.90;;;;;;5052824;28;20000;-66
2022/07/21 08:01:22;;;;;;;;;;;21.00;99.90;;;;;;5052899;28;19962;-67
2022/07/21 08:03:48;;;;;;;;;;;21.30;99.90;;;;;;5062097;28;19909;-66
2022/07/21 08:06:13;;;;;;;;;;;21.70;99.90;;;;;;5066201;28;19995;-67
2022/07/21 08:08:39;;;;;;;;;;;22.00;99.90;;;;;;5070326;28;19916;-67
2022/07/21 08:11:04;;;;;;;;;;;21.90;99.90;;;;;;5072843;28;19920;-67
2022/07/21 08:13:30;;;;;;;;;;;21.60;99.90;;;;;;5073167;28;20301;-66
2022/07/21 08:15:55;;;;;;;;;;;21.30;99.90;;;;;;5073122;28;20324;-66
2022/07/21 08:18:21;;;;;;;;;;;21.20;99.90;;;;;;5070475;28;20256;-66
2022/07/21 08:20:47;;;;;;;;;;;21.10;99.90;;;;;;5056406;28;19952;-68
2022/07/21 08:23:16;;;;;;;;;;;21.10;99.90;;;;;;5056439;28;20003;-65
2022/07/21 08:25:42;;;;;;;;;;;21.20;99.90;;;;;;5056571;28;19992;-65
2022/07/21 08:28:08;;;;;;;;;;;21.10;99.90;;;;;;5056181;28;19920;-65
2022/07/21 08:30:42;;;;;;;;;;;21.20;99.90;;;;;;5056204;28;19909;-66
2022/07/21 08:33:08;;;;;;;;;;;21.50;99.90;;;;;;5075406;28;20001;-66
2022/07/21 08:35:34;;;;;;;;;;;21.60;99.90;;;;;;5076194;28;19958;-66
2022/07/21 08:38:02;;;;;;;;;;;21.80;99.90;;;;;;5076318;28;19909;-66
2022/07/21 08:40:29;;;;;;;;;;;22.10;99.90;;;;;;5067346;28;19909;-66
2022/07/21 08:42:54;;;;;;;;;;;22.30;99.90;;;;;;5056024;28;19913;-66
2022/07/21 08:45:22;;;;;;;;;;;22.00;99.90;;;;;;5055835;28;19947;-66
2022/07/21 08:47:50;;;;;;;;;;;21.90;99.90;;;;;;5056068;28;19919;-66
2022/07/21 08:50:16;;;;;;;;;;;21.80;99.90;;;;;;5055766;28;20007;-66
2022/07/21 08:52:42;;;;;;;;;;;21.80;99.90;;;;;;5065179;28;19959;-66
2022/07/21 08:55:07;;;;;;;;;;;22.00;99.90;;;;;;5050799;28;20389;-66
2022/07/21 08:57:33;;;;;;;;;;;21.70;99.90;;;;;;5055581;28;20268;-66
2022/07/21 08:59:58;;;;;;;;;;;21.50;99.90;;;;;;5055560;28;19908;-66
2022/07/21 09:02:28;;;;;;;;;;;21.20;99.90;;;;;;5058263;28;20359;-66
2022/07/21 09:04:54;;;;;;;;;;;21.20;99.90;;;;;;5056266;28;19958;-66
2022/07/21 09:07:19;;;;;;;;;;;21.40;99.90;;;;;;5073641;28;20395;-66
2022/07/21 09:09:54;;;;;;;;;;;21.70;99.90;;;;;;5075759;28;19921;-66
2022/07/21 09:12:19;;;;;;;;;;;21.70;99.90;;;;;;5052748;28;20394;-67
2022/07/21 09:14:45;;;;;;;;;;;21.90;99.90;;;;;;5071158;28;19916;-66
2022/07/21 09:17:10;;;;;;;;;;;22.30;99.90;;;;;;5075272;28;20043;-66
2022/07/21 09:19:38;;;;;;;;;;;22.60;99.90;;;;;;5075318;28;19908;-66
2022/07/21 09:22:05;;;;;;;;;;;22.80;99.90;;;;;;5075166;28;19909;-67
2022/07/21 09:24:37;;;;;;;;;;;23.20;99.90;;;;;;5057299;28;19909;-67
2022/07/21 09:27:07;;;;;;;;;;;23.20;99.90;;;;;;5075311;28;19909;-67
2022/07/21 09:29:34;;;;;;;;;;;23.50;99.90;;;;;;5074940;28;19917;-68
2022/07/21 09:32:12;;;;;;;;;;;23.50;99.90;;;;;;5073688;28;19912;-66
2022/07/21 09:34:37;;;;;;;;;;;23.60;99.90;;;;;;5065024;28;20334;-67
2022/07/21 09:37:04;;;;;;;;;;;23.50;99.90;;;;;;5054997;28;19913;-66
2022/07/21 09:39:50;;;;;;;;;;;23.30;99.90;;;;;;5055212;28;19909;-66
2022/07/21 09:42:16;;;;;;;;;;;23.00;99.90;;;;;;5054905;28;19909;-67
2022/07/21 09:44:43;;;;;;;;;;;23.00;99.90;;;;;;5055141;28;19916;-66
2022/07/21 09:47:09;;;;;;;;;;;22.90;99.90;;;;;;5067061;28;19917;-65
2022/07/21 09:49:37;;;;;;;;;;;23.10;99.90;;;;;;5047508;28;20013;-66
2022/07/21 09:52:16;;;;;;;;;;;22.90;99.90;;;;;;5074978;28;20279;-65
2022/07/21 09:54:42;;;;;;;;;;;23.20;99.90;;;;;;5074655;28;19908;-65
2022/07/21 09:57:08;;;;;;;;;;;23.50;99.90;;;;;;5056565;28;19917;-65
2022/07/21 09:59:34;;;;;;;;;;;24.00;99.90;;;;;;5057029;28;20034;-65
2022/07/21 10:01:59;;;;;;;;;;;23.70;99.90;;;;;;5074449;28;20267;-65
2022/07/21 10:04:25;;;;;;;;;;;23.70;99.90;;;;;;5073673;28;19916;-64
2022/07/21 10:06:51;;;;;;;;;;;24.20;99.90;;;;;;5065499;28;19909;-65
2022/07/21 10:09:16;;;;;;;;;;;24.10;99.90;;;;;;5054549;28;19924;-65
2022/07/21 10:11:42;;;;;;;;;;;23.90;99.90;;;;;;5054754;28;19916;-66
2022/07/21 10:14:10;;;;;;;;;;;23.90;99.90;;;;;;5054527;28;20026;-65
2022/07/21 10:16:36;;;;;;;;;;;23.60;99.90;;;;;;5054248;28;19908;-65
2022/07/21 10:19:05;;;;;;;;;;;23.80;99.90;;;;;;5036363;28;20427;-65
2022/07/21 10:21:51;;;;;;;;;;;23.60;99.90;;;;;;5054145;28;19959;-65
2022/07/21 10:24:16;;;;;;;;;;;23.40;99.90;;;;;;5022461;28;19999;-66
2022/07/21 10:27:02;;;;;;;;;;;23.20;99.90;;;;;;5069170;28;20345;-66
2022/07/21 10:29:47;;;;;;;;;;;23.00;99.90;;;;;;5054622;28;19917;-65
2022/07/21 10:32:14;;;;;;;;;;;23.10;99.90;;;;;;5053926;28;19908;-65
2022/07/21 10:34:40;;;;;;;;;;;23.00;99.90;;;;;;5053879;28;19916;-65
2022/07/21 10:37:05;;;;;;;;;;;23.20;99.90;;;;;;5054186;28;19909;-65
2022/07/21 10:39:32;;;;;;;;;;;23.40;99.90;;;;;;5053171;28;19913;-66
2022/07/21 10:42:00;;;;;;;;;;;23.70;99.90;;;;;;5053895;28;19915;-66
2022/07/21 10:47:05;;;;;;;;;;;;;;;;;;5044244;28;19917;-67
2022/07/21 10:49:31;;;;;;;;;;;;;;;;;;5046237;28;19919;-68
2022/07/21 10:51:57;;;;;;;;;;;;;;;;;;5050891;28;20363;-68
2022/07/21 10:54:23;;;;;;;;;;;;;;;;;;5049596;28;19916;-67
2022/07/21 10:56:49;;;;;;;;;;;;;;;;;;5050921;28;20293;-67
2022/07/21 10:59:15;;;;;;;;;;;;;;;;;;5050650;28;20369;-67
2022/07/21 11:01:40;;;;;;;;;;;24.60;99.90;;;;;;5050610;28;19919;-68
2022/07/21 11:04:11;;;;;;;;;;;24.40;99.90;;;;;;5050525;28;20331;-67
2022/07/21 11:06:38;;;;;;;;;;;24.20;99.90;;;;;;5049447;28;19917;-67
2022/07/21 11:12:03;;;;;;;;;;;25.50;99.90;;;;;;5007823;28;19914;-65
2022/07/21 11:14:37;;;;;;;;;;;24.60;99.90;;;;;;5001400;28;19917;-65
2022/07/21 11:17:03;;;;;;;;;;;24.60;99.90;;;;;;4998663;28;20020;-64
2022/07/21 11:22:23;;;;;;;;;;;23.90;99.90;;;;;;5070184;28;20347;-67
2022/07/21 11:24:50;;;;;;;;;;;23.70;99.90;;;;;;5070699;28;20008;-66
2022/07/21 11:27:17;;;;;;;;;;;23.50;99.90;;;;;;5071044;28;20252;-66
2022/07/21 11:29:44;;;;;;;;;;;23.60;99.90;;;;;;5070751;28;19912;-67
2022/07/21 11:32:10;;;;;;;;;;;23.70;99.90;;;;;;5070784;28;19915;-67
2022/07/21 11:34:37;;;;;;;;;;;23.90;99.90;;;;;;5070967;28;20359;-67
2022/07/21 11:37:03;;;;;;;;;;;24.00;99.90;;;;;;5069320;28;19917;-66
2022/07/21 11:39:29;;;;;;;;;;;24.10;99.90;;;;;;5070567;28;19915;-67
2022/07/21 11:41:55;;;;;;;;;;;24.20;99.90;;;;;;5070382;28;19912;-66
2022/07/21 11:44:23;;;;;;;;;;;24.30;99.90;;;;;;5070518;28;20422;-68
2022/07/21 11:46:50;;;;;;;;;;;24.00;99.90;;;;;;5070480;28;19962;-69
2022/07/21 11:49:15;;;;;;;;;;;24.10;99.90;;;;;;5086433;28;19916;-68
2022/07/21 11:51:49;;;;;;;;;;;23.80;99.90;;;;;;5070620;28;19908;-68
2022/07/21 11:54:23;;;;;;;;;;;24.10;99.90;;;;;;5070364;28;20295;-69
2022/07/21 11:56:50;;;;;;;;;;;24.00;99.90;;;;;;5069087;28;20397;-68
2022/07/21 11:59:15;;;;;;;;;;;24.00;99.90;;;;;;5070426;28;19915;-68
2022/07/21 12:01:49;;;;;;;;;;;23.90;99.90;;;;;;5066320;28;20375;-69
2022/07/21 12:04:14;;;;;;;;;;;23.80;99.90;;;;;;5058783;28;19935;-68
2022/07/21 12:06:40;;;;;;;;;;;23.60;99.90;;;;;;5063916;28;19928;-67
2022/07/21 12:09:05;;;;;;;;;;;23.40;99.90;;;;;;5070175;28;19909;-67
2022/07/21 12:11:34;;;;;;;;;;;23.20;99.90;;;;;;5070062;28;19915;-67
2022/07/21 12:14:01;;;;;;;;;;;23.30;99.90;;;;;;5069857;28;19909;-67
2022/07/21 12:16:26;;;;;;;;;;;23.10;99.90;;;;;;5069787;28;19999;-67
2022/07/21 12:19:12;;;;;;;;;;;23.10;99.90;;;;;;5069689;28;19948;-68
2022/07/21 12:21:52;;;;;;;;;;;23.00;99.90;;;;;;5083977;28;20290;-67
2022/07/21 12:24:19;;;;;;;;;;;22.90;99.90;;;;;;5089888;28;20010;-68
2022/07/21 12:26:45;;;;;;;;;;;22.90;99.90;;;;;;5089890;28;19909;-68
2022/07/21 12:29:10;;;;;;;;;;;22.90;99.90;;;;;;5071520;28;19975;-69
2022/07/21 12:31:37;;;;;;;;;;;22.90;99.90;;;;;;5088391;28;20011;-68
2022/07/21 12:34:10;;;;;;;;;;;22.70;99.90;;;;;;5058194;28;20386;-68
2022/07/21 12:36:36;;;;;;;;;;;22.80;99.90;;;;;;5050024;28;19919;-68
2022/07/21 12:39:13;;;;;;;;;;;22.70;99.90;;;;;;5060385;28;19909;-68
2022/07/21 12:41:43;;;;;;;;;;;22.70;99.90;;;;;;5067600;28;20358;-68
2022/07/21 12:44:09;;;;;;;;;;;22.80;99.90;;;;;;5075943;28;20447;-68
2022/07/21 12:46:35;;;;;;;;;;;22.80;99.90;;;;;;5075868;28;19936;-68
2022/07/21 12:49:09;;;;;;;;;;;22.70;99.90;;;;;;5076189;28;19909;-68
2022/07/21 12:51:35;;;;;;;;;;;22.50;99.90;;;;;;5075915;28;20386;-68
2022/07/21 12:54:00;;;;;;;;;;;22.60;99.90;;;;;;5076155;28;19995;-69
2022/07/21 12:56:27;;;;;;;;;;;22.50;99.90;;;;;;5058048;28;20382;-68
2022/07/21 12:58:54;;;;;;;;;;;22.60;99.90;;;;;;5076063;28;19912;-67
2022/07/21 13:01:21;;;;;;;;;;;22.60;99.90;;;;;;5074551;28;19974;-68
2022/07/21 13:03:47;;;;;;;;;;;22.40;99.90;;;;;;5069493;28;19909;-68
2022/07/21 13:06:15;;;;;;;;;;;22.20;99.90;;;;;;5054712;28;19912;-68
2022/07/21 13:08:41;;;;;;;;;;;22.00;99.90;;;;;;5055797;28;19909;-68
2022/07/21 13:11:08;;;;;;;;;;;21.70;99.90;;;;;;5055337;28;19941;-67
2022/07/21 13:13:33;;;;;;;;;;;21.70;99.90;;;;;;5055800;28;20393;-68
2022/07/21 13:15:59;;;;;;;;;;;21.50;99.90;;;;;;5054614;28;20003;-68
2022/07/21 13:18:24;;;;;;;;;;;21.50;99.90;;;;;;5057113;28;19997;-68
2022/07/21 13:20:50;;;;;;;;;;;21.50;99.90;;;;;;5073109;28;19924;-69
2022/07/21 13:23:17;;;;;;;;;;;21.40;99.90;;;;;;5055048;28;19916;-69
2022/07/21 13:25:43;;;;;;;;;;;21.60;99.90;;;;;;5055495;28;20015;-69
2022/07/21 13:28:08;;;;;;;;;;;21.70;99.90;;;;;;5055576;28;19955;-69
2022/07/21 13:30:34;;;;;;;;;;;21.80;99.90;;;;;;5066236;28;19909;-69
2022/07/21 13:32:59;;;;;;;;;;;21.70;99.90;;;;;;5055198;28;20380;-68
2022/07/21 13:35:25;;;;;;;;;;;21.50;99.90;;;;;;5061097;28;19912;-67
2022/07/21 13:37:50;;;;;;;;;;;21.30;99.90;;;;;;5056880;28;19912;-68
2022/07/21 13:40:16;;;;;;;;;;;21.30;99.90;;;;;;5074823;28;19916;-70
2022/07/21 13:42:42;;;;;;;;;;;21.30;99.90;;;;;;5074868;28;19908;-67
2022/07/21 13:45:10;;;;;;;;;;;21.50;99.90;;;;;;5066114;28;19958;-67
2022/07/21 13:47:36;;;;;;;;;;;21.60;99.90;;;;;;5057674;28;19909;-67
2022/07/21 13:50:02;;;;;;;;;;;21.60;99.90;;;;;;5066442;28;20326;-68
2022/07/21 13:52:27;;;;;;;;;;;21.60;99.90;;;;;;5065841;28;19927;-68
2022/07/21 13:54:53;;;;;;;;;;;21.80;99.90;;;;;;5064175;28;19912;-68
2022/07/21 13:57:18;;;;;;;;;;;21.70;99.90;;;;;;5054880;28;20379;-68
2022/07/21 13:59:44;;;;;;;;;;;21.60;99.90;;;;;;5071172;28;19913;-68
2022/07/21 14:02:09;;;;;;;;;;;21.50;99.90;;;;;;5072748;28;19916;-68
2022/07/21 14:04:34;;;;;;;;;;;21.50;99.90;;;;;;5065050;28;20279;-68
2022/07/21 14:07:00;;;;;;;;;;;;;;;;;;5061331;28;19916;-69
2022/07/21 14:09:26;;;;;;;;;;;;;;;;;;5067966;28;20007;-69
2022/07/21 14:11:52;;;;;;;;;;;;;;;;;;5070034;28;19931;-69
2022/07/21 14:14:21;;;;;;;;;;;;;;;;;;5055805;28;19909;-70
2022/07/21 14:16:47;;;;;;;;;;;;;;;;;;5060465;28;20016;-69
2022/07/21 14:19:13;;;;;;;;;;;;;;;;;;5056739;28;20362;-69
2022/07/21 14:21:39;;;;;;;;;;;;;;;;;;5066104;28;19935;-69
2022/07/21 14:26:50;;;;;;;;;;;;;;;;;;5053770;28;19978;-69
2022/07/21 14:29:16;;;;;;;;;;;;;;;;;;5053427;28;20351;-69
2022/07/21 14:31:42;;;;;;;;;;;;;;;;;;5053598;28;19943;-68
2022/07/21 14:34:08;;;;;;;;;;;;;;;;;;5053129;28;20007;-68